PST: 06:17 MST: 07:17 CST: 08:17 EST: 09:17 LDN: 14:17 UTC: 13:17
User Agent: CCBot/2.0 (https://commoncrawl.org/faq/)
IP Address: 35.175.191.36
Hostname: ec2-35-175-191-36.compute-1.amazonaws.com

METAR:
KBFI 251253Z 00000KT 10SM CLR 17/13 A3008 RMK AO2 SLP186 T01720128
KBFI 251153Z 31003KT 10SM CLR 17/13 A3007 RMK AO2 SLP183 T01720128 10217 20172 53001
KBFI 251053Z 00000KT 10SM CLR 18/13 A3007 RMK AO2 SLP182 T01780133
KBFI 250953Z 00000KT 10SM CLR 18/13 A3007 RMK AO2 SLP181 T01830128

TAF:
KBFI 251120Z 2512/2612 VRB03KT P6SM SKC
FM 251900 29007KT P6SM SKC
FM 260400 VRB03KT P6SM SKC

KBFI 250520Z 2506/2606 VRB03KT P6SM SKC
FM 251900 29007KT P6SM SKC

KBFI 250300Z 2503/2524 30005KT P6SM SKC
FM 250800 00000KT P6SM SKC
FM 251900 29008KT P6SM SKC

KBFI 242320Z 2500/2524 34014KT P6SM SKC
FM 250600 04004KT P6SM SKC
FM 251200 33010KT P6SM SKC

KBFI 241724Z 2418/2518 31007KT P6SM SKC
FM 250600 00000KT P6SM SKC

KBFI 241127Z 2412/2512 00000KT P6SM SKC
FM 241700 32008KT P6SM SKC
FM 250600 00000KT P6SM SKC